sensor_id;sensor_type;location;lat;lon;timestamp;P1;durP1;ratioP1;P2;durP2;ratioP2
49590;SDS011;35496;-21.974;-46.800;2023-02-28T00:00:07;6.32;;;1.27;;
49590;SDS011;35496;-21.974;-46.800;2023-02-28T00:02:36;4.40;;;1.80;;
49590;SDS011;35496;-21.974;-46.800;2023-02-28T00:05:03;5.28;;;2.58;;
49590;SDS011;35496;-21.974;-46.800;2023-02-28T00:07:30;3.25;;;2.28;;
49590;SDS011;35496;-21.974;-46.800;2023-02-28T00:09:57;3.05;;;1.30;;
49590;SDS011;35496;-21.974;-46.800;2023-02-28T00:12:23;3.78;;;1.65;;
49590;SDS011;35496;-21.974;-46.800;2023-02-28T00:14:49;2.65;;;1.73;;
49590;SDS011;35496;-21.974;-46.800;2023-02-28T00:17:15;2.45;;;1.35;;
49590;SDS011;35496;-21.974;-46.800;2023-02-28T00:19:47;1.65;;;1.52;;
49590;SDS011;35496;-21.974;-46.800;2023-02-28T00:22:14;0.88;;;0.88;;
49590;SDS011;35496;-21.974;-46.800;2023-02-28T00:24:40;1.13;;;1.00;;
49590;SDS011;35496;-21.974;-46.800;2023-02-28T00:27:06;1.50;;;1.40;;
49590;SDS011;35496;-21.974;-46.800;2023-02-28T00:29:32;1.63;;;1.35;;
49590;SDS011;35496;-21.974;-46.800;2023-02-28T00:31:58;4.07;;;0.90;;
49590;SDS011;35496;-21.974;-46.800;2023-02-28T00:34:24;5.32;;;1.60;;
49590;SDS011;35496;-21.974;-46.800;2023-02-28T00:36:50;3.55;;;1.55;;
49590;SDS011;35496;-21.974;-46.800;2023-02-28T00:39:17;1.73;;;1.27;;
49590;SDS011;35496;-21.974;-46.800;2023-02-28T00:41:43;1.75;;;0.82;;
49590;SDS011;35496;-21.974;-46.800;2023-02-28T00:44:09;3.17;;;1.10;;
49590;SDS011;35496;-21.974;-46.800;2023-02-28T00:46:37;2.03;;;1.20;;
49590;SDS011;35496;-21.974;-46.800;2023-02-28T00:49:03;20.42;;;1.50;;
49590;SDS011;35496;-21.974;-46.800;2023-02-28T00:51:29;2.72;;;1.10;;
49590;SDS011;35496;-21.974;-46.800;2023-02-28T00:53:55;1.38;;;1.10;;
49590;SDS011;35496;-21.974;-46.800;2023-02-28T00:56:21;16.23;;;1.75;;
49590;SDS011;35496;-21.974;-46.800;2023-02-28T00:58:47;4.68;;;2.03;;
49590;SDS011;35496;-21.974;-46.800;2023-02-28T01:01:13;3.22;;;1.50;;
49590;SDS011;35496;-21.974;-46.800;2023-02-28T01:03:39;6.47;;;1.88;;
49590;SDS011;35496;-21.974;-46.800;2023-02-28T01:06:05;8.68;;;2.22;;
49590;SDS011;35496;-21.974;-46.800;2023-02-28T01:08:32;1.25;;;1.15;;
49590;SDS011;35496;-21.974;-46.800;2023-02-28T01:10:57;0.60;;;0.60;;
49590;SDS011;35496;-21.974;-46.800;2023-02-28T01:13:32;2.50;;;1.10;;
49590;SDS011;35496;-21.974;-46.800;2023-02-28T01:15:58;3.53;;;1.88;;
49590;SDS011;35496;-21.974;-46.800;2023-02-28T01:18:24;3.65;;;0.93;;
49590;SDS011;35496;-21.974;-46.800;2023-02-28T01:20:50;1.73;;;1.30;;
49590;SDS011;35496;-21.974;-46.800;2023-02-28T01:23:18;2.10;;;0.85;;
49590;SDS011;35496;-21.974;-46.800;2023-02-28T01:25:44;4.15;;;1.10;;
49590;SDS011;35496;-21.974;-46.800;2023-02-28T01:28:10;2.67;;;1.45;;
49590;SDS011;35496;-21.974;-46.800;2023-02-28T01:30:36;1.42;;;1.23;;
49590;SDS011;35496;-21.974;-46.800;2023-02-28T01:33:02;4.45;;;1.48;;
49590;SDS011;35496;-21.974;-46.800;2023-02-28T01:35:31;3.45;;;1.75;;
49590;SDS011;35496;-21.974;-46.800;2023-02-28T01:37:58;1.77;;;1.38;;
49590;SDS011;35496;-21.974;-46.800;2023-02-28T01:40:24;2.83;;;1.50;;
49590;SDS011;35496;-21.974;-46.800;2023-02-28T01:42:50;4.47;;;2.25;;
49590;SDS011;35496;-21.974;-46.800;2023-02-28T01:45:18;3.15;;;1.83;;
49590;SDS011;35496;-21.974;-46.800;2023-02-28T01:47:46;2.45;;;1.73;;
49590;SDS011;35496;-21.974;-46.800;2023-02-28T01:50:15;2.63;;;1.17;;
49590;SDS011;35496;-21.974;-46.800;2023-02-28T01:52:42;3.20;;;1.25;;
49590;SDS011;35496;-21.974;-46.800;2023-02-28T01:55:09;6.60;;;1.50;;
49590;SDS011;35496;-21.974;-46.800;2023-02-28T01:57:38;6.70;;;2.28;;
49590;SDS011;35496;-21.974;-46.800;2023-02-28T02:00:06;2.42;;;1.52;;
49590;SDS011;35496;-21.974;-46.800;2023-02-28T02:02:34;7.50;;;2.55;;
49590;SDS011;35496;-21.974;-46.800;2023-02-28T02:05:09;6.63;;;2.00;;
49590;SDS011;35496;-21.974;-46.800;2023-02-28T02:07:36;2.97;;;1.52;;
49590;SDS011;35496;-21.974;-46.800;2023-02-28T02:10:24;1.63;;;1.52;;
49590;SDS011;35496;-21.974;-46.800;2023-02-28T02:13:02;2.13;;;1.45;;
49590;SDS011;35496;-21.974;-46.800;2023-02-28T02:18:25;3.17;;;1.42;;
49590;SDS011;35496;-21.974;-46.800;2023-02-28T02:23:31;2.75;;;1.35;;
49590;SDS011;35496;-21.974;-46.800;2023-02-28T02:41:09;1.80;;;1.45;;
49590;SDS011;35496;-21.974;-46.800;2023-02-28T02:43:48;1.95;;;1.35;;
49590;SDS011;35496;-21.974;-46.800;2023-02-28T02:47:01;9.70;;;1.77;;
49590;SDS011;35496;-21.974;-46.800;2023-02-28T02:49:03;5.43;;;2.13;;
49590;SDS011;35496;-21.974;-46.800;2023-02-28T02:51:31;3.45;;;2.05;;
49590;SDS011;35496;-21.974;-46.800;2023-02-28T02:57:01;4.85;;;1.73;;
49590;SDS011;35496;-21.974;-46.800;2023-02-28T02:59:29;5.22;;;1.88;;
49590;SDS011;35496;-21.974;-46.800;2023-02-28T03:01:57;1.85;;;1.13;;
49590;SDS011;35496;-21.974;-46.800;2023-02-28T03:04:24;2.17;;;1.48;;
49590;SDS011;35496;-21.974;-46.800;2023-02-28T03:06:51;3.35;;;1.60;;
49590;SDS011;35496;-21.974;-46.800;2023-02-28T03:09:21;2.25;;;1.73;;
49590;SDS011;35496;-21.974;-46.800;2023-02-28T03:11:47;2.55;;;1.42;;
49590;SDS011;35496;-21.974;-46.800;2023-02-28T03:14:25;9.13;;;2.00;;
49590;SDS011;35496;-21.974;-46.800;2023-02-28T03:19:31;1.58;;;1.45;;
49590;SDS011;35496;-21.974;-46.800;2023-02-28T03:27:29;1.38;;;1.23;;
49590;SDS011;35496;-21.974;-46.800;2023-02-28T03:32:35;6.80;;;2.03;;
49590;SDS011;35496;-21.974;-46.800;2023-02-28T03:35:13;2.03;;;1.92;;
49590;SDS011;35496;-21.974;-46.800;2023-02-28T03:37:40;5.20;;;1.48;;
49590;SDS011;35496;-21.974;-46.800;2023-02-28T03:40:12;3.25;;;2.25;;
49590;SDS011;35496;-21.974;-46.800;2023-02-28T03:42:39;2.38;;;2.17;;
49590;SDS011;35496;-21.974;-46.800;2023-02-28T03:45:14;3.25;;;2.20;;
49590;SDS011;35496;-21.974;-46.800;2023-02-28T03:47:49;4.90;;;2.42;;
49590;SDS011;35496;-21.974;-46.800;2023-02-28T03:50:18;3.80;;;2.60;;
49590;SDS011;35496;-21.974;-46.800;2023-02-28T03:52:47;3.72;;;2.22;;
49590;SDS011;35496;-21.974;-46.800;2023-02-28T03:55:15;4.78;;;2.47;;
49590;SDS011;35496;-21.974;-46.800;2023-02-28T03:57:55;2.75;;;1.60;;
49590;SDS011;35496;-21.974;-46.800;2023-02-28T04:00:27;2.35;;;1.77;;
49590;SDS011;35496;-21.974;-46.800;2023-02-28T04:02:54;10.50;;;3.45;;
49590;SDS011;35496;-21.974;-46.800;2023-02-28T04:05:20;2.63;;;1.38;;
49590;SDS011;35496;-21.974;-46.800;2023-02-28T04:07:46;2.65;;;2.33;;
49590;SDS011;35496;-21.974;-46.800;2023-02-28T04:10:15;8.73;;;2.65;;
49590;SDS011;35496;-21.974;-46.800;2023-02-28T04:12:41;3.30;;;2.08;;
49590;SDS011;35496;-21.974;-46.800;2023-02-28T04:15:07;2.78;;;2.17;;
49590;SDS011;35496;-21.974;-46.800;2023-02-28T04:17:33;5.22;;;2.40;;
49590;SDS011;35496;-21.974;-46.800;2023-02-28T04:19:59;3.13;;;2.78;;
49590;SDS011;35496;-21.974;-46.800;2023-02-28T04:22:25;4.82;;;2.15;;
49590;SDS011;35496;-21.974;-46.800;2023-02-28T04:24:51;7.38;;;2.85;;
49590;SDS011;35496;-21.974;-46.800;2023-02-28T04:27:20;4.82;;;2.50;;
49590;SDS011;35496;-21.974;-46.800;2023-02-28T04:29:46;4.00;;;2.03;;
49590;SDS011;35496;-21.974;-46.800;2023-02-28T04:32:12;4.30;;;2.53;;
49590;SDS011;35496;-21.974;-46.800;2023-02-28T04:34:38;4.47;;;3.05;;
49590;SDS011;35496;-21.974;-46.800;2023-02-28T04:37:06;3.88;;;1.98;;
49590;SDS011;35496;-21.974;-46.800;2023-02-28T04:39:34;4.68;;;2.33;;
49590;SDS011;35496;-21.974;-46.800;2023-02-28T04:42:01;2.45;;;2.00;;
49590;SDS011;35496;-21.974;-46.800;2023-02-28T04:44:27;4.18;;;2.20;;
49590;SDS011;35496;-21.974;-46.800;2023-02-28T04:46:53;5.85;;;2.53;;
49590;SDS011;35496;-21.974;-46.800;2023-02-28T04:49:19;2.22;;;2.10;;
49590;SDS011;35496;-21.974;-46.800;2023-02-28T04:51:45;3.78;;;1.67;;
49590;SDS011;35496;-21.974;-46.800;2023-02-28T04:54:11;4.07;;;2.10;;
49590;SDS011;35496;-21.974;-46.800;2023-02-28T04:56:38;4.70;;;2.03;;
49590;SDS011;35496;-21.974;-46.800;2023-02-28T04:59:04;1.80;;;1.70;;
49590;SDS011;35496;-21.974;-46.800;2023-02-28T05:01:31;2.38;;;1.80;;
49590;SDS011;35496;-21.974;-46.800;2023-02-28T05:03:58;2.55;;;1.88;;
49590;SDS011;35496;-21.974;-46.800;2023-02-28T05:06:25;2.85;;;1.63;;
49590;SDS011;35496;-21.974;-46.800;2023-02-28T05:08:52;5.40;;;1.80;;
49590;SDS011;35496;-21.974;-46.800;2023-02-28T05:11:23;3.63;;;1.67;;
49590;SDS011;35496;-21.974;-46.800;2023-02-28T05:13:49;2.17;;;2.08;;
49590;SDS011;35496;-21.974;-46.800;2023-02-28T05:16:16;3.22;;;1.75;;
49590;SDS011;35496;-21.974;-46.800;2023-02-28T05:18:42;4.80;;;2.40;;
49590;SDS011;35496;-21.974;-46.800;2023-02-28T05:23:51;2.83;;;1.55;;
49590;SDS011;35496;-21.974;-46.800;2023-02-28T05:26:17;4.22;;;1.92;;
49590;SDS011;35496;-21.974;-46.800;2023-02-28T05:28:44;1.95;;;1.77;;
49590;SDS011;35496;-21.974;-46.800;2023-02-28T05:31:13;4.57;;;1.73;;
49590;SDS011;35496;-21.974;-46.800;2023-02-28T05:33:39;2.63;;;1.67;;
49590;SDS011;35496;-21.974;-46.800;2023-02-28T05:36:05;2.28;;;2.15;;
49590;SDS011;35496;-21.974;-46.800;2023-02-28T05:38:31;3.47;;;2.33;;
49590;SDS011;35496;-21.974;-46.800;2023-02-28T05:40:57;3.45;;;1.80;;
49590;SDS011;35496;-21.974;-46.800;2023-02-28T05:43:23;8.27;;;2.33;;
49590;SDS011;35496;-21.974;-46.800;2023-02-28T05:45:49;2.72;;;1.73;;
49590;SDS011;35496;-21.974;-46.800;2023-02-28T05:48:15;1.92;;;1.45;;
49590;SDS011;35496;-21.974;-46.800;2023-02-28T05:50:42;6.35;;;1.98;;
49590;SDS011;35496;-21.974;-46.800;2023-02-28T05:53:10;1.60;;;1.50;;
49590;SDS011;35496;-21.974;-46.800;2023-02-28T05:55:36;2.05;;;1.20;;
49590;SDS011;35496;-21.974;-46.800;2023-02-28T05:58:02;4.97;;;1.73;;
49590;SDS011;35496;-21.974;-46.800;2023-02-28T06:00:29;2.10;;;1.15;;
49590;SDS011;35496;-21.974;-46.800;2023-02-28T06:02:55;2.72;;;1.67;;
49590;SDS011;35496;-21.974;-46.800;2023-02-28T06:05:23;2.92;;;1.30;;
49590;SDS011;35496;-21.974;-46.800;2023-02-28T06:07:49;11.75;;;2.10;;
49590;SDS011;35496;-21.974;-46.800;2023-02-28T06:10:15;1.77;;;1.63;;
49590;SDS011;35496;-21.974;-46.800;2023-02-28T06:12:41;6.03;;;1.83;;
49590;SDS011;35496;-21.974;-46.800;2023-02-28T06:15:17;4.53;;;2.17;;
49590;SDS011;35496;-21.974;-46.800;2023-02-28T06:17:43;5.90;;;1.83;;
49590;SDS011;35496;-21.974;-46.800;2023-02-28T06:20:10;1.95;;;1.73;;
49590;SDS011;35496;-21.974;-46.800;2023-02-28T06:22:38;1.70;;;1.30;;
49590;SDS011;35496;-21.974;-46.800;2023-02-28T06:25:04;4.18;;;1.30;;
49590;SDS011;35496;-21.974;-46.800;2023-02-28T06:27:31;4.28;;;1.83;;
49590;SDS011;35496;-21.974;-46.800;2023-02-28T06:29:57;1.40;;;1.30;;
49590;SDS011;35496;-21.974;-46.800;2023-02-28T06:32:23;2.30;;;1.38;;
49590;SDS011;35496;-21.974;-46.800;2023-02-28T06:34:49;3.00;;;2.10;;
49590;SDS011;35496;-21.974;-46.800;2023-02-28T06:37:16;3.75;;;3.13;;
49590;SDS011;35496;-21.974;-46.800;2023-02-28T06:39:43;5.13;;;1.85;;
49590;SDS011;35496;-21.974;-46.800;2023-02-28T06:42:09;7.45;;;3.03;;
49590;SDS011;35496;-21.974;-46.800;2023-02-28T06:44:35;4.97;;;2.25;;
49590;SDS011;35496;-21.974;-46.800;2023-02-28T06:47:01;1.83;;;1.63;;
49590;SDS011;35496;-21.974;-46.800;2023-02-28T06:49:29;3.95;;;2.25;;
49590;SDS011;35496;-21.974;-46.800;2023-02-28T06:51:55;2.25;;;1.85;;
49590;SDS011;35496;-21.974;-46.800;2023-02-28T06:54:21;2.88;;;2.40;;
49590;SDS011;35496;-21.974;-46.800;2023-02-28T06:56:47;4.60;;;2.00;;
49590;SDS011;35496;-21.974;-46.800;2023-02-28T06:59:16;8.25;;;2.20;;
49590;SDS011;35496;-21.974;-46.800;2023-02-28T07:01:42;3.38;;;2.08;;
49590;SDS011;35496;-21.974;-46.800;2023-02-28T07:04:08;3.20;;;1.60;;
49590;SDS011;35496;-21.974;-46.800;2023-02-28T07:06:34;5.45;;;1.85;;
49590;SDS011;35496;-21.974;-46.800;2023-02-28T07:09:00;3.08;;;1.60;;
49590;SDS011;35496;-21.974;-46.800;2023-02-28T07:11:26;1.80;;;1.42;;
49590;SDS011;35496;-21.974;-46.800;2023-02-28T07:13:53;1.77;;;1.67;;
49590;SDS011;35496;-21.974;-46.800;2023-02-28T07:16:20;2.78;;;1.95;;
49590;SDS011;35496;-21.974;-46.800;2023-02-28T07:18:46;1.50;;;1.38;;
49590;SDS011;35496;-21.974;-46.800;2023-02-28T07:21:12;6.75;;;2.13;;
49590;SDS011;35496;-21.974;-46.800;2023-02-28T07:23:38;5.25;;;1.80;;
49590;SDS011;35496;-21.974;-46.800;2023-02-28T07:26:05;1.60;;;1.50;;
49590;SDS011;35496;-21.974;-46.800;2023-02-28T07:28:32;2.83;;;1.85;;
49590;SDS011;35496;-21.974;-46.800;2023-02-28T07:31:03;3.25;;;1.98;;
49590;SDS011;35496;-21.974;-46.800;2023-02-28T07:33:29;3.80;;;1.80;;
49590;SDS011;35496;-21.974;-46.800;2023-02-28T07:35:59;3.08;;;1.73;;
49590;SDS011;35496;-21.974;-46.800;2023-02-28T07:38:25;2.15;;;1.95;;
49590;SDS011;35496;-21.974;-46.800;2023-02-28T07:40:51;1.60;;;1.42;;
49590;SDS011;35496;-21.974;-46.800;2023-02-28T07:43:17;3.33;;;1.63;;
49590;SDS011;35496;-21.974;-46.800;2023-02-28T07:45:43;2.80;;;1.90;;
49590;SDS011;35496;-21.974;-46.800;2023-02-28T07:48:09;6.03;;;2.20;;
49590;SDS011;35496;-21.974;-46.800;2023-02-28T07:50:35;7.18;;;2.08;;
49590;SDS011;35496;-21.974;-46.800;2023-02-28T07:53:01;4.38;;;1.98;;
49590;SDS011;35496;-21.974;-46.800;2023-02-28T07:55:27;1.98;;;1.75;;
49590;SDS011;35496;-21.974;-46.800;2023-02-28T07:57:53;3.20;;;2.00;;
49590;SDS011;35496;-21.974;-46.800;2023-02-28T08:00:19;7.40;;;1.60;;
49590;SDS011;35496;-21.974;-46.800;2023-02-28T08:02:45;6.95;;;1.80;;
49590;SDS011;35496;-21.974;-46.800;2023-02-28T08:05:11;4.03;;;1.85;;
49590;SDS011;35496;-21.974;-46.800;2023-02-28T08:07:37;2.40;;;1.55;;
49590;SDS011;35496;-21.974;-46.800;2023-02-28T08:10:04;4.72;;;2.22;;
49590;SDS011;35496;-21.974;-46.800;2023-02-28T08:12:31;6.85;;;2.67;;
49590;SDS011;35496;-21.974;-46.800;2023-02-28T08:14:57;7.13;;;2.13;;
49590;SDS011;35496;-21.974;-46.800;2023-02-28T08:17:23;4.88;;;2.88;;
49590;SDS011;35496;-21.974;-46.800;2023-02-28T08:19:49;6.97;;;1.98;;
49590;SDS011;35496;-21.974;-46.800;2023-02-28T08:22:15;4.18;;;2.28;;
49590;SDS011;35496;-21.974;-46.800;2023-02-28T08:24:41;2.80;;;2.60;;
49590;SDS011;35496;-21.974;-46.800;2023-02-28T08:27:08;11.13;;;3.58;;
49590;SDS011;35496;-21.974;-46.800;2023-02-28T08:29:36;9.75;;;2.15;;
49590;SDS011;35496;-21.974;-46.800;2023-02-28T08:32:02;4.63;;;2.28;;
49590;SDS011;35496;-21.974;-46.800;2023-02-28T08:34:28;7.70;;;2.20;;
49590;SDS011;35496;-21.974;-46.800;2023-02-28T08:36:54;8.68;;;2.95;;
49590;SDS011;35496;-21.974;-46.800;2023-02-28T08:39:21;2.90;;;1.98;;
49590;SDS011;35496;-21.974;-46.800;2023-02-28T08:41:47;3.35;;;2.47;;
49590;SDS011;35496;-21.974;-46.800;2023-02-28T08:44:12;8.13;;;3.55;;
49590;SDS011;35496;-21.974;-46.800;2023-02-28T08:46:38;4.60;;;3.28;;
49590;SDS011;35496;-21.974;-46.800;2023-02-28T08:49:05;5.55;;;2.65;;
49590;SDS011;35496;-21.974;-46.800;2023-02-28T08:51:32;4.10;;;2.90;;
49590;SDS011;35496;-21.974;-46.800;2023-02-28T08:53:59;2.88;;;2.20;;
49590;SDS011;35496;-21.974;-46.800;2023-02-28T08:56:25;6.63;;;3.20;;
49590;SDS011;35496;-21.974;-46.800;2023-02-28T08:58:53;5.63;;;3.28;;
49590;SDS011;35496;-21.974;-46.800;2023-02-28T09:01:24;3.13;;;2.47;;
49590;SDS011;35496;-21.974;-46.800;2023-02-28T09:03:52;6.28;;;4.03;;
49590;SDS011;35496;-21.974;-46.800;2023-02-28T09:06:19;11.43;;;5.95;;
49590;SDS011;35496;-21.974;-46.800;2023-02-28T09:08:45;11.05;;;6.10;;
49590;SDS011;35496;-21.974;-46.800;2023-02-28T09:11:11;9.18;;;6.50;;
49590;SDS011;35496;-21.974;-46.800;2023-02-28T09:13:37;23.88;;;10.40;;
49590;SDS011;35496;-21.974;-46.800;2023-02-28T09:16:04;19.38;;;9.20;;
49590;SDS011;35496;-21.974;-46.800;2023-02-28T09:18:31;9.93;;;4.85;;
49590;SDS011;35496;-21.974;-46.800;2023-02-28T09:20:57;13.85;;;5.75;;
49590;SDS011;35496;-21.974;-46.800;2023-02-28T09:23:23;8.82;;;4.03;;
49590;SDS011;35496;-21.974;-46.800;2023-02-28T09:25:50;9.50;;;4.35;;
49590;SDS011;35496;-21.974;-46.800;2023-02-28T09:28:17;5.85;;;3.70;;
49590;SDS011;35496;-21.974;-46.800;2023-02-28T09:30:48;3.20;;;2.90;;
49590;SDS011;35496;-21.974;-46.800;2023-02-28T09:33:14;5.07;;;4.13;;
49590;SDS011;35496;-21.974;-46.800;2023-02-28T09:35:40;3.20;;;2.85;;
49590;SDS011;35496;-21.974;-46.800;2023-02-28T09:38:08;3.42;;;3.13;;
49590;SDS011;35496;-21.974;-46.800;2023-02-28T09:40:53;8.02;;;4.03;;
49590;SDS011;35496;-21.974;-46.800;2023-02-28T09:43:23;5.13;;;3.78;;
49590;SDS011;35496;-21.974;-46.800;2023-02-28T09:48:26;3.47;;;3.15;;
49590;SDS011;35496;-21.974;-46.800;2023-02-28T09:50:55;5.38;;;3.35;;
49590;SDS011;35496;-21.974;-46.800;2023-02-28T09:53:29;4.78;;;2.70;;
49590;SDS011;35496;-21.974;-46.800;2023-02-28T09:56:14;8.75;;;3.88;;
49590;SDS011;35496;-21.974;-46.800;2023-02-28T09:58:44;7.10;;;4.32;;
49590;SDS011;35496;-21.974;-46.800;2023-02-28T10:01:18;4.22;;;3.92;;
49590;SDS011;35496;-21.974;-46.800;2023-02-28T10:06:30;15.68;;;5.13;;
49590;SDS011;35496;-21.974;-46.800;2023-02-28T10:09:06;5.93;;;4.63;;
49590;SDS011;35496;-21.974;-46.800;2023-02-28T10:11:35;10.85;;;4.50;;
49590;SDS011;35496;-21.974;-46.800;2023-02-28T10:14:07;7.63;;;5.55;;
49590;SDS011;35496;-21.974;-46.800;2023-02-28T10:16:43;13.25;;;9.15;;
49590;SDS011;35496;-21.974;-46.800;2023-02-28T10:19:17;18.55;;;8.32;;
49590;SDS011;35496;-21.974;-46.800;2023-02-28T10:21:57;14.80;;;6.57;;
49590;SDS011;35496;-21.974;-46.800;2023-02-28T10:27:13;5.50;;;4.90;;
49590;SDS011;35496;-21.974;-46.800;2023-02-28T10:29:40;6.72;;;4.63;;
49590;SDS011;35496;-21.974;-46.800;2023-02-28T10:32:08;5.07;;;3.25;;
49590;SDS011;35496;-21.974;-46.800;2023-02-28T10:34:36;6.57;;;3.60;;
49590;SDS011;35496;-21.974;-46.800;2023-02-28T10:37:03;4.18;;;3.05;;
49590;SDS011;35496;-21.974;-46.800;2023-02-28T10:39:43;5.25;;;4.05;;
49590;SDS011;35496;-21.974;-46.800;2023-02-28T10:42:23;3.78;;;3.38;;
49590;SDS011;35496;-21.974;-46.800;2023-02-28T10:45:33;5.18;;;3.17;;
49590;SDS011;35496;-21.974;-46.800;2023-02-28T10:47:51;3.67;;;2.70;;
49590;SDS011;35496;-21.974;-46.800;2023-02-28T10:58:25;3.38;;;2.80;;
49590;SDS011;35496;-21.974;-46.800;2023-02-28T11:00:52;3.92;;;2.40;;
49590;SDS011;35496;-21.974;-46.800;2023-02-28T11:05:57;5.28;;;2.03;;
49590;SDS011;35496;-21.974;-46.800;2023-02-28T11:08:25;1.90;;;1.77;;
49590;SDS011;35496;-21.974;-46.800;2023-02-28T11:10:54;3.25;;;2.40;;
49590;SDS011;35496;-21.974;-46.800;2023-02-28T11:13:24;5.28;;;2.42;;
49590;SDS011;35496;-21.974;-46.800;2023-02-28T11:15:52;4.72;;;1.83;;
49590;SDS011;35496;-21.974;-46.800;2023-02-28T11:20:51;2.95;;;2.40;;
49590;SDS011;35496;-21.974;-46.800;2023-02-28T11:23:18;2.90;;;2.60;;
49590;SDS011;35496;-21.974;-46.800;2023-02-28T11:25:49;4.45;;;2.60;;
49590;SDS011;35496;-21.974;-46.800;2023-02-28T11:28:30;6.10;;;2.57;;
49590;SDS011;35496;-21.974;-46.800;2023-02-28T11:31:01;2.78;;;1.83;;
49590;SDS011;35496;-21.974;-46.800;2023-02-28T11:33:47;6.25;;;2.33;;
49590;SDS011;35496;-21.974;-46.800;2023-02-28T11:36:19;23.45;;;5.25;;
49590;SDS011;35496;-21.974;-46.800;2023-02-28T11:38:46;5.50;;;3.63;;
49590;SDS011;35496;-21.974;-46.800;2023-02-28T11:41:22;3.13;;;2.78;;
49590;SDS011;35496;-21.974;-46.800;2023-02-28T11:44:00;4.37;;;3.13;;
49590;SDS011;35496;-21.974;-46.800;2023-02-28T12:02:24;6.78;;;3.63;;
49590;SDS011;35496;-21.974;-46.800;2023-02-28T12:07:38;3.70;;;2.65;;
49590;SDS011;35496;-21.974;-46.800;2023-02-28T12:10:12;6.47;;;2.63;;
49590;SDS011;35496;-21.974;-46.800;2023-02-28T12:20:42;5.90;;;2.28;;
49590;SDS011;35496;-21.974;-46.800;2023-02-28T12:28:26;1.67;;;1.58;;
49590;SDS011;35496;-21.974;-46.800;2023-02-28T12:30:57;4.00;;;2.28;;
49590;SDS011;35496;-21.974;-46.800;2023-02-28T12:33:26;3.20;;;1.88;;
49590;SDS011;35496;-21.974;-46.800;2023-02-28T12:35:56;3.50;;;2.63;;
49590;SDS011;35496;-21.974;-46.800;2023-02-28T12:38:24;1.95;;;1.85;;
49590;SDS011;35496;-21.974;-46.800;2023-02-28T12:43:17;3.78;;;2.00;;
49590;SDS011;35496;-21.974;-46.800;2023-02-28T12:45:54;3.30;;;2.47;;
49590;SDS011;35496;-21.974;-46.800;2023-02-28T12:48:28;4.63;;;2.15;;
49590;SDS011;35496;-21.974;-46.800;2023-02-28T12:50:55;2.42;;;1.70;;
49590;SDS011;35496;-21.974;-46.800;2023-02-28T12:53:47;4.00;;;2.40;;
49590;SDS011;35496;-21.974;-46.800;2023-02-28T12:56:09;3.25;;;1.65;;
49590;SDS011;35496;-21.974;-46.800;2023-02-28T12:59:45;1.55;;;1.45;;
49590;SDS011;35496;-21.974;-46.800;2023-02-28T17:08:22;2.10;;;1.17;;
49590;SDS011;35496;-21.974;-46.800;2023-02-28T17:10:48;1.88;;;1.40;;
49590;SDS011;35496;-21.974;-46.800;2023-02-28T17:13:14;4.47;;;2.42;;
49590;SDS011;35496;-21.974;-46.800;2023-02-28T17:15:40;2.05;;;1.83;;
49590;SDS011;35496;-21.974;-46.800;2023-02-28T17:18:06;1.23;;;1.20;;
49590;SDS011;35496;-21.974;-46.800;2023-02-28T17:20:34;1.83;;;1.45;;
49590;SDS011;35496;-21.974;-46.800;2023-02-28T17:23:00;2.28;;;1.60;;
49590;SDS011;35496;-21.974;-46.800;2023-02-28T17:25:27;1.02;;;1.02;;
49590;SDS011;35496;-21.974;-46.800;2023-02-28T17:27:53;1.40;;;1.17;;
49590;SDS011;35496;-21.974;-46.800;2023-02-28T17:30:21;2.40;;;1.50;;
49590;SDS011;35496;-21.974;-46.800;2023-02-28T17:32:47;1.73;;;1.20;;
49590;SDS011;35496;-21.974;-46.800;2023-02-28T17:35:13;1.88;;;1.52;;
49590;SDS011;35496;-21.974;-46.800;2023-02-28T17:37:39;3.88;;;2.17;;
49590;SDS011;35496;-21.974;-46.800;2023-02-28T17:40:05;1.67;;;1.58;;
49590;SDS011;35496;-21.974;-46.800;2023-02-28T17:42:32;1.80;;;1.70;;
49590;SDS011;35496;-21.974;-46.800;2023-02-28T17:44:58;1.65;;;1.52;;
49590;SDS011;35496;-21.974;-46.800;2023-02-28T17:47:24;1.30;;;1.20;;
49590;SDS011;35496;-21.974;-46.800;2023-02-28T17:49:50;4.53;;;1.40;;
49590;SDS011;35496;-21.974;-46.800;2023-02-28T17:52:16;3.03;;;1.60;;
49590;SDS011;35496;-21.974;-46.800;2023-02-28T17:54:42;2.67;;;1.50;;
49590;SDS011;35496;-21.974;-46.800;2023-02-28T17:57:11;3.00;;;1.35;;
49590;SDS011;35496;-21.974;-46.800;2023-02-28T17:59:38;1.20;;;1.10;;
49590;SDS011;35496;-21.974;-46.800;2023-02-28T18:02:06;3.55;;;2.10;;
49590;SDS011;35496;-21.974;-46.800;2023-02-28T18:04:32;5.40;;;1.92;;
49590;SDS011;35496;-21.974;-46.800;2023-02-28T18:06:58;3.63;;;2.40;;
49590;SDS011;35496;-21.974;-46.800;2023-02-28T18:09:25;1.83;;;1.70;;
49590;SDS011;35496;-21.974;-46.800;2023-02-28T18:11:52;2.70;;;2.50;;
49590;SDS011;35496;-21.974;-46.800;2023-02-28T18:14:21;5.25;;;3.05;;
49590;SDS011;35496;-21.974;-46.800;2023-02-28T18:16:49;3.08;;;1.75;;
49590;SDS011;35496;-21.974;-46.800;2023-02-28T18:19:15;2.55;;;1.55;;
49590;SDS011;35496;-21.974;-46.800;2023-02-28T18:21:42;2.65;;;1.10;;
49590;SDS011;35496;-21.974;-46.800;2023-02-28T18:24:08;1.45;;;1.02;;
49590;SDS011;35496;-21.974;-46.800;2023-02-28T18:26:35;1.77;;;1.67;;
49590;SDS011;35496;-21.974;-46.800;2023-02-28T18:29:02;1.30;;;1.20;;
49590;SDS011;35496;-21.974;-46.800;2023-02-28T18:31:28;3.67;;;1.05;;
49590;SDS011;35496;-21.974;-46.800;2023-02-28T18:33:56;1.40;;;0.90;;
49590;SDS011;35496;-21.974;-46.800;2023-02-28T18:36:23;4.82;;;1.50;;
49590;SDS011;35496;-21.974;-46.800;2023-02-28T18:38:49;1.48;;;1.15;;
49590;SDS011;35496;-21.974;-46.800;2023-02-28T18:41:17;1.60;;;1.23;;
49590;SDS011;35496;-21.974;-46.800;2023-02-28T18:43:46;2.67;;;1.48;;
49590;SDS011;35496;-21.974;-46.800;2023-02-28T18:46:13;2.85;;;1.38;;
49590;SDS011;35496;-21.974;-46.800;2023-02-28T18:48:40;5.70;;;1.55;;
49590;SDS011;35496;-21.974;-46.800;2023-02-28T18:51:10;5.75;;;1.30;;
49590;SDS011;35496;-21.974;-46.800;2023-02-28T18:53:37;3.25;;;1.83;;
49590;SDS011;35496;-21.974;-46.800;2023-02-28T18:56:04;0.63;;;0.63;;
49590;SDS011;35496;-21.974;-46.800;2023-02-28T18:58:30;3.42;;;1.40;;
49590;SDS011;35496;-21.974;-46.800;2023-02-28T19:00:58;2.63;;;0.98;;
49590;SDS011;35496;-21.974;-46.800;2023-02-28T19:03:24;1.75;;;1.25;;
49590;SDS011;35496;-21.974;-46.800;2023-02-28T19:05:54;11.02;;;1.70;;
49590;SDS011;35496;-21.974;-46.800;2023-02-28T19:08:20;1.60;;;1.50;;
49590;SDS011;35496;-21.974;-46.800;2023-02-28T19:10:47;1.55;;;1.30;;
49590;SDS011;35496;-21.974;-46.800;2023-02-28T19:13:13;1.42;;;1.33;;
49590;SDS011;35496;-21.974;-46.800;2023-02-28T19:15:39;1.40;;;1.33;;
49590;SDS011;35496;-21.974;-46.800;2023-02-28T19:18:05;4.28;;;3.65;;
49590;SDS011;35496;-21.974;-46.800;2023-02-28T19:20:31;4.38;;;2.20;;
49590;SDS011;35496;-21.974;-46.800;2023-02-28T19:22:57;2.05;;;1.70;;
49590;SDS011;35496;-21.974;-46.800;2023-02-28T19:25:23;1.27;;;0.88;;
49590;SDS011;35496;-21.974;-46.800;2023-02-28T19:27:52;1.92;;;1.80;;
49590;SDS011;35496;-21.974;-46.800;2023-02-28T19:30:18;1.40;;;1.27;;
49590;SDS011;35496;-21.974;-46.800;2023-02-28T19:32:45;2.83;;;1.05;;
49590;SDS011;35496;-21.974;-46.800;2023-02-28T19:35:11;2.60;;;1.30;;
49590;SDS011;35496;-21.974;-46.800;2023-02-28T19:37:37;2.95;;;1.40;;
49590;SDS011;35496;-21.974;-46.800;2023-02-28T19:40:04;1.40;;;1.20;;
49590;SDS011;35496;-21.974;-46.800;2023-02-28T19:42:31;1.17;;;1.05;;
49590;SDS011;35496;-21.974;-46.800;2023-02-28T19:44:58;2.05;;;1.85;;
49590;SDS011;35496;-21.974;-46.800;2023-02-28T19:47:24;1.73;;;1.63;;
49590;SDS011;35496;-21.974;-46.800;2023-02-28T19:49:50;3.97;;;1.85;;
49590;SDS011;35496;-21.974;-46.800;2023-02-28T19:52:19;2.10;;;1.20;;